sensor_id;sensor_type;location;lat;lon;timestamp;P1;durP1;ratioP1;P2;durP2;ratioP2
3085;SDS011;52812;48.960;9.108;2023-02-01T00:00:11;2.70;;;2.13;;
3085;SDS011;52812;48.960;9.108;2023-02-01T00:02:37;2.40;;;2.20;;
3085;SDS011;52812;48.960;9.108;2023-02-01T00:05:06;3.80;;;2.33;;
3085;SDS011;52812;48.960;9.108;2023-02-01T00:07:32;3.63;;;2.10;;
3085;SDS011;52812;48.960;9.108;2023-02-01T00:09:58;3.90;;;2.33;;
3085;SDS011;52812;48.960;9.108;2023-02-01T00:12:23;2.30;;;2.00;;
3085;SDS011;52812;48.960;9.108;2023-02-01T00:14:49;4.50;;;2.27;;
3085;SDS011;52812;48.960;9.108;2023-02-01T00:17:15;2.10;;;1.90;;
3085;SDS011;52812;48.960;9.108;2023-02-01T00:19:40;2.50;;;2.13;;
3085;SDS011;52812;48.960;9.108;2023-02-01T00:22:06;2.60;;;2.10;;
3085;SDS011;52812;48.960;9.108;2023-02-01T00:24:31;3.40;;;2.37;;
3085;SDS011;52812;48.960;9.108;2023-02-01T00:26:57;2.40;;;2.17;;
3085;SDS011;52812;48.960;9.108;2023-02-01T00:29:22;4.13;;;2.60;;
3085;SDS011;52812;48.960;9.108;2023-02-01T00:31:49;3.83;;;2.30;;
3085;SDS011;52812;48.960;9.108;2023-02-01T00:34:16;4.93;;;2.60;;
3085;SDS011;52812;48.960;9.108;2023-02-01T00:36:42;3.40;;;2.73;;
3085;SDS011;52812;48.960;9.108;2023-02-01T00:39:08;2.60;;;2.40;;
3085;SDS011;52812;48.960;9.108;2023-02-01T00:41:34;3.70;;;2.77;;
3085;SDS011;52812;48.960;9.108;2023-02-01T00:44:00;4.00;;;2.53;;
3085;SDS011;52812;48.960;9.108;2023-02-01T00:46:26;2.97;;;2.23;;
3085;SDS011;52812;48.960;9.108;2023-02-01T00:48:52;3.70;;;2.67;;
3085;SDS011;52812;48.960;9.108;2023-02-01T00:51:19;3.13;;;2.50;;
3085;SDS011;52812;48.960;9.108;2023-02-01T00:53:49;3.57;;;2.17;;
3085;SDS011;52812;48.960;9.108;2023-02-01T00:56:15;2.93;;;2.30;;
3085;SDS011;52812;48.960;9.108;2023-02-01T00:58:41;2.20;;;2.00;;
3085;SDS011;52812;48.960;9.108;2023-02-01T01:01:08;2.67;;;2.10;;
3085;SDS011;52812;48.960;9.108;2023-02-01T01:03:34;3.10;;;2.37;;
3085;SDS011;52812;48.960;9.108;2023-02-01T01:06:03;2.63;;;2.43;;
3085;SDS011;52812;48.960;9.108;2023-02-01T01:08:30;3.70;;;2.40;;
3085;SDS011;52812;48.960;9.108;2023-02-01T01:10:56;3.60;;;2.50;;
3085;SDS011;52812;48.960;9.108;2023-02-01T01:13:22;4.63;;;2.70;;
3085;SDS011;52812;48.960;9.108;2023-02-01T01:15:47;3.13;;;2.70;;
3085;SDS011;52812;48.960;9.108;2023-02-01T01:18:13;3.43;;;2.30;;
3085;SDS011;52812;48.960;9.108;2023-02-01T01:20:39;2.80;;;2.50;;
3085;SDS011;52812;48.960;9.108;2023-02-01T01:23:06;3.30;;;2.30;;
3085;SDS011;52812;48.960;9.108;2023-02-01T01:25:36;4.20;;;2.50;;
3085;SDS011;52812;48.960;9.108;2023-02-01T01:28:03;2.30;;;2.10;;
3085;SDS011;52812;48.960;9.108;2023-02-01T01:30:29;3.07;;;2.40;;
3085;SDS011;52812;48.960;9.108;2023-02-01T01:32:54;3.83;;;2.30;;
3085;SDS011;52812;48.960;9.108;2023-02-01T01:35:20;3.30;;;2.33;;
3085;SDS011;52812;48.960;9.108;2023-02-01T01:37:45;2.73;;;2.30;;
3085;SDS011;52812;48.960;9.108;2023-02-01T01:40:11;2.67;;;2.13;;
3085;SDS011;52812;48.960;9.108;2023-02-01T01:42:38;2.70;;;2.30;;
3085;SDS011;52812;48.960;9.108;2023-02-01T01:48:02;3.17;;;2.43;;
3085;SDS011;52812;48.960;9.108;2023-02-01T01:50:42;3.20;;;2.20;;
3085;SDS011;52812;48.960;9.108;2023-02-01T01:53:13;3.70;;;2.07;;
3085;SDS011;52812;48.960;9.108;2023-02-01T01:55:48;3.70;;;2.60;;
3085;SDS011;52812;48.960;9.108;2023-02-01T01:58:16;3.10;;;2.20;;
3085;SDS011;52812;48.960;9.108;2023-02-01T02:00:44;2.70;;;2.13;;
3085;SDS011;52812;48.960;9.108;2023-02-01T02:05:45;2.80;;;2.23;;
3085;SDS011;52812;48.960;9.108;2023-02-01T02:08:12;4.20;;;2.30;;
3085;SDS011;52812;48.960;9.108;2023-02-01T02:10:38;3.50;;;2.30;;
3085;SDS011;52812;48.960;9.108;2023-02-01T02:13:23;3.17;;;2.63;;
3085;SDS011;52812;48.960;9.108;2023-02-01T02:15:56;3.50;;;2.30;;
3085;SDS011;52812;48.960;9.108;2023-02-01T02:21:12;2.80;;;2.17;;
3085;SDS011;52812;48.960;9.108;2023-02-01T02:26:24;3.90;;;2.70;;
3085;SDS011;52812;48.960;9.108;2023-02-01T02:35:07;3.03;;;2.20;;
3085;SDS011;52812;48.960;9.108;2023-02-01T02:37:54;2.90;;;2.20;;
3085;SDS011;52812;48.960;9.108;2023-02-01T02:43:22;4.57;;;2.40;;
3085;SDS011;52812;48.960;9.108;2023-02-01T02:47:32;3.03;;;2.13;;
3085;SDS011;52812;48.960;9.108;2023-02-01T02:50:53;2.50;;;2.30;;
3085;SDS011;52812;48.960;9.108;2023-02-01T02:53:38;3.47;;;2.53;;
3085;SDS011;52812;48.960;9.108;2023-02-01T02:56:53;2.83;;;2.13;;
3085;SDS011;52812;48.960;9.108;2023-02-01T02:59:40;3.50;;;2.30;;
3085;SDS011;52812;48.960;9.108;2023-02-01T03:02:26;3.30;;;2.30;;
3085;SDS011;52812;48.960;9.108;2023-02-01T03:05:12;2.40;;;2.13;;
3085;SDS011;52812;48.960;9.108;2023-02-01T03:13:06;3.50;;;1.67;;
3085;SDS011;52812;48.960;9.108;2023-02-01T03:15:43;2.40;;;1.80;;
3085;SDS011;52812;48.960;9.108;2023-02-01T03:21:16;1.77;;;1.60;;
3085;SDS011;52812;48.960;9.108;2023-02-01T03:23:49;1.97;;;1.70;;
3085;SDS011;52812;48.960;9.108;2023-02-01T03:26:17;1.97;;;1.70;;
3085;SDS011;52812;48.960;9.108;2023-02-01T03:28:49;2.00;;;1.60;;
3085;SDS011;52812;48.960;9.108;2023-02-01T03:31:21;1.90;;;1.70;;
3085;SDS011;52812;48.960;9.108;2023-02-01T03:33:48;2.47;;;2.00;;
3085;SDS011;52812;48.960;9.108;2023-02-01T03:41:51;1.93;;;1.83;;
3085;SDS011;52812;48.960;9.108;2023-02-01T03:44:22;1.70;;;1.60;;
3085;SDS011;52812;48.960;9.108;2023-02-01T03:47:09;2.07;;;1.87;;
3085;SDS011;52812;48.960;9.108;2023-02-01T03:49:45;2.20;;;2.00;;
3085;SDS011;52812;48.960;9.108;2023-02-01T03:52:13;2.97;;;2.00;;
3085;SDS011;52812;48.960;9.108;2023-02-01T03:54:42;2.37;;;1.90;;
3085;SDS011;52812;48.960;9.108;2023-02-01T03:57:11;3.00;;;2.10;;
3085;SDS011;52812;48.960;9.108;2023-02-01T03:59:40;2.47;;;1.90;;
3085;SDS011;52812;48.960;9.108;2023-02-01T04:02:07;2.60;;;2.00;;
3085;SDS011;52812;48.960;9.108;2023-02-01T04:04:33;3.17;;;2.07;;
3085;SDS011;52812;48.960;9.108;2023-02-01T04:06:59;4.13;;;2.10;;
3085;SDS011;52812;48.960;9.108;2023-02-01T04:09:28;2.20;;;1.90;;
3085;SDS011;52812;48.960;9.108;2023-02-01T04:11:54;2.47;;;2.27;;
3085;SDS011;52812;48.960;9.108;2023-02-01T04:14:20;1.80;;;1.70;;
3085;SDS011;52812;48.960;9.108;2023-02-01T04:16:46;4.03;;;2.20;;
3085;SDS011;52812;48.960;9.108;2023-02-01T04:19:11;2.97;;;1.90;;
3085;SDS011;52812;48.960;9.108;2023-02-01T04:21:37;2.90;;;2.40;;
3085;SDS011;52812;48.960;9.108;2023-02-01T04:24:03;2.30;;;2.07;;
3085;SDS011;52812;48.960;9.108;2023-02-01T04:26:32;2.47;;;2.20;;
3085;SDS011;52812;48.960;9.108;2023-02-01T04:28:58;2.80;;;2.10;;
3085;SDS011;52812;48.960;9.108;2023-02-01T04:31:23;2.90;;;2.47;;
3085;SDS011;52812;48.960;9.108;2023-02-01T04:33:52;2.40;;;2.20;;
3085;SDS011;52812;48.960;9.108;2023-02-01T04:36:19;2.87;;;2.47;;
3085;SDS011;52812;48.960;9.108;2023-02-01T04:38:49;2.73;;;1.97;;
3085;SDS011;52812;48.960;9.108;2023-02-01T04:41:15;3.07;;;2.30;;
3085;SDS011;52812;48.960;9.108;2023-02-01T04:43:44;3.17;;;2.67;;
3085;SDS011;52812;48.960;9.108;2023-02-01T04:46:13;2.40;;;2.20;;
3085;SDS011;52812;48.960;9.108;2023-02-01T04:48:38;3.17;;;2.50;;
3085;SDS011;52812;48.960;9.108;2023-02-01T04:51:04;2.10;;;1.90;;
3085;SDS011;52812;48.960;9.108;2023-02-01T04:53:30;3.20;;;2.30;;
3085;SDS011;52812;48.960;9.108;2023-02-01T04:55:56;3.60;;;2.43;;
3085;SDS011;52812;48.960;9.108;2023-02-01T04:58:21;2.63;;;2.43;;
3085;SDS011;52812;48.960;9.108;2023-02-01T05:00:47;2.20;;;1.83;;
3085;SDS011;52812;48.960;9.108;2023-02-01T05:03:14;2.70;;;2.37;;
3085;SDS011;52812;48.960;9.108;2023-02-01T05:05:40;2.63;;;1.90;;
3085;SDS011;52812;48.960;9.108;2023-02-01T05:08:09;2.70;;;2.20;;
3085;SDS011;52812;48.960;9.108;2023-02-01T05:10:34;2.20;;;2.00;;
3085;SDS011;52812;48.960;9.108;2023-02-01T05:13:00;3.23;;;1.90;;
3085;SDS011;52812;48.960;9.108;2023-02-01T05:15:44;3.90;;;2.20;;
3085;SDS011;52812;48.960;9.108;2023-02-01T05:18:11;2.30;;;2.10;;
3085;SDS011;52812;48.960;9.108;2023-02-01T05:20:37;2.60;;;2.40;;
3085;SDS011;52812;48.960;9.108;2023-02-01T05:23:02;3.30;;;2.27;;
3085;SDS011;52812;48.960;9.108;2023-02-01T05:25:28;3.37;;;2.50;;
3085;SDS011;52812;48.960;9.108;2023-02-01T05:27:54;3.10;;;2.53;;
3085;SDS011;52812;48.960;9.108;2023-02-01T05:30:20;5.00;;;2.30;;
3085;SDS011;52812;48.960;9.108;2023-02-01T05:32:48;4.80;;;2.37;;
3085;SDS011;52812;48.960;9.108;2023-02-01T05:35:17;3.10;;;2.60;;
3085;SDS011;52812;48.960;9.108;2023-02-01T05:37:43;4.27;;;2.47;;
3085;SDS011;52812;48.960;9.108;2023-02-01T05:40:09;3.97;;;2.40;;
3085;SDS011;52812;48.960;9.108;2023-02-01T05:42:35;3.93;;;2.60;;
3085;SDS011;52812;48.960;9.108;2023-02-01T05:45:01;3.13;;;2.50;;
3085;SDS011;52812;48.960;9.108;2023-02-01T05:47:26;2.97;;;2.30;;
3085;SDS011;52812;48.960;9.108;2023-02-01T05:49:52;4.20;;;3.20;;
3085;SDS011;52812;48.960;9.108;2023-02-01T05:52:18;8.97;;;4.93;;
3085;SDS011;52812;48.960;9.108;2023-02-01T05:54:44;4.30;;;3.10;;
3085;SDS011;52812;48.960;9.108;2023-02-01T05:57:12;6.07;;;3.10;;
3085;SDS011;52812;48.960;9.108;2023-02-01T05:59:38;7.53;;;3.80;;
3085;SDS011;52812;48.960;9.108;2023-02-01T06:02:09;3.10;;;2.33;;
3085;SDS011;52812;48.960;9.108;2023-02-01T06:04:36;2.30;;;2.10;;
3085;SDS011;52812;48.960;9.108;2023-02-01T06:07:02;2.27;;;2.07;;
3085;SDS011;52812;48.960;9.108;2023-02-01T06:09:28;2.47;;;2.13;;
3085;SDS011;52812;48.960;9.108;2023-02-01T06:11:54;4.63;;;2.20;;
3085;SDS011;52812;48.960;9.108;2023-02-01T06:14:20;2.83;;;2.33;;
3085;SDS011;52812;48.960;9.108;2023-02-01T06:16:45;2.40;;;2.20;;
3085;SDS011;52812;48.960;9.108;2023-02-01T06:19:11;3.03;;;2.50;;
3085;SDS011;52812;48.960;9.108;2023-02-01T06:21:38;2.53;;;2.20;;
3085;SDS011;52812;48.960;9.108;2023-02-01T06:24:03;3.87;;;2.60;;
3085;SDS011;52812;48.960;9.108;2023-02-01T06:26:29;3.90;;;2.93;;
3085;SDS011;52812;48.960;9.108;2023-02-01T06:28:55;7.60;;;3.07;;
3085;SDS011;52812;48.960;9.108;2023-02-01T06:31:21;4.50;;;2.93;;
3085;SDS011;52812;48.960;9.108;2023-02-01T06:33:47;7.87;;;3.57;;
3085;SDS011;52812;48.960;9.108;2023-02-01T06:36:13;4.90;;;3.20;;
3085;SDS011;52812;48.960;9.108;2023-02-01T06:38:41;5.10;;;3.50;;
3085;SDS011;52812;48.960;9.108;2023-02-01T06:41:06;4.00;;;3.00;;
3085;SDS011;52812;48.960;9.108;2023-02-01T06:43:33;5.20;;;3.40;;
3085;SDS011;52812;48.960;9.108;2023-02-01T06:46:03;5.80;;;3.57;;
3085;SDS011;52812;48.960;9.108;2023-02-01T06:48:31;6.30;;;3.90;;
3085;SDS011;52812;48.960;9.108;2023-02-01T06:50:57;6.50;;;3.80;;
3085;SDS011;52812;48.960;9.108;2023-02-01T06:53:23;6.73;;;4.00;;
3085;SDS011;52812;48.960;9.108;2023-02-01T06:55:55;11.10;;;4.43;;
3085;SDS011;52812;48.960;9.108;2023-02-01T06:58:32;7.87;;;4.33;;
3085;SDS011;52812;48.960;9.108;2023-02-01T07:01:04;5.30;;;3.93;;
3085;SDS011;52812;48.960;9.108;2023-02-01T07:03:31;7.73;;;4.80;;
3085;SDS011;52812;48.960;9.108;2023-02-01T07:05:57;7.40;;;4.60;;
3085;SDS011;52812;48.960;9.108;2023-02-01T07:08:29;11.37;;;4.60;;
3085;SDS011;52812;48.960;9.108;2023-02-01T07:10:56;10.50;;;4.70;;
3085;SDS011;52812;48.960;9.108;2023-02-01T07:13:22;9.30;;;5.10;;
3085;SDS011;52812;48.960;9.108;2023-02-01T07:15:47;8.07;;;4.90;;
3085;SDS011;52812;48.960;9.108;2023-02-01T07:18:14;7.30;;;4.63;;
3085;SDS011;52812;48.960;9.108;2023-02-01T07:20:40;8.57;;;4.90;;
3085;SDS011;52812;48.960;9.108;2023-02-01T07:23:07;11.23;;;4.77;;
3085;SDS011;52812;48.960;9.108;2023-02-01T07:25:35;6.63;;;4.70;;
3085;SDS011;52812;48.960;9.108;2023-02-01T07:28:00;8.50;;;4.50;;
3085;SDS011;52812;48.960;9.108;2023-02-01T07:30:26;8.50;;;5.10;;
3085;SDS011;52812;48.960;9.108;2023-02-01T07:32:52;8.93;;;4.67;;
3085;SDS011;52812;48.960;9.108;2023-02-01T07:35:17;9.47;;;5.23;;
3085;SDS011;52812;48.960;9.108;2023-02-01T07:37:43;9.40;;;5.40;;
3085;SDS011;52812;48.960;9.108;2023-02-01T07:40:09;7.77;;;4.93;;
3085;SDS011;52812;48.960;9.108;2023-02-01T07:42:35;9.23;;;5.60;;
3085;SDS011;52812;48.960;9.108;2023-02-01T07:45:01;7.13;;;4.90;;
3085;SDS011;52812;48.960;9.108;2023-02-01T07:47:27;7.20;;;4.47;;
3085;SDS011;52812;48.960;9.108;2023-02-01T07:49:53;7.33;;;4.57;;
3085;SDS011;52812;48.960;9.108;2023-02-01T07:52:19;5.10;;;3.97;;
3085;SDS011;52812;48.960;9.108;2023-02-01T07:54:44;10.07;;;5.17;;
3085;SDS011;52812;48.960;9.108;2023-02-01T07:57:10;8.30;;;5.03;;
3085;SDS011;52812;48.960;9.108;2023-02-01T07:59:36;9.80;;;5.47;;
3085;SDS011;52812;48.960;9.108;2023-02-01T08:02:25;8.00;;;4.77;;
3085;SDS011;52812;48.960;9.108;2023-02-01T08:04:51;10.43;;;4.87;;
3085;SDS011;52812;48.960;9.108;2023-02-01T08:07:16;9.63;;;5.37;;
3085;SDS011;52812;48.960;9.108;2023-02-01T08:09:42;8.40;;;4.43;;
3085;SDS011;52812;48.960;9.108;2023-02-01T08:12:08;8.60;;;4.93;;
3085;SDS011;52812;48.960;9.108;2023-02-01T08:14:33;7.13;;;4.70;;
3085;SDS011;52812;48.960;9.108;2023-02-01T08:16:59;10.03;;;4.37;;
3085;SDS011;52812;48.960;9.108;2023-02-01T08:19:24;6.77;;;4.60;;
3085;SDS011;52812;48.960;9.108;2023-02-01T08:21:50;7.77;;;4.10;;
3085;SDS011;52812;48.960;9.108;2023-02-01T08:24:15;8.43;;;3.50;;
3085;SDS011;52812;48.960;9.108;2023-02-01T08:26:41;7.00;;;4.07;;
3085;SDS011;52812;48.960;9.108;2023-02-01T08:29:07;9.27;;;3.90;;
3085;SDS011;52812;48.960;9.108;2023-02-01T08:31:35;6.90;;;4.10;;
3085;SDS011;52812;48.960;9.108;2023-02-01T08:34:05;6.20;;;3.83;;
3085;SDS011;52812;48.960;9.108;2023-02-01T08:36:33;7.43;;;4.13;;
3085;SDS011;52812;48.960;9.108;2023-02-01T08:38:58;5.27;;;3.87;;
3085;SDS011;52812;48.960;9.108;2023-02-01T08:41:25;7.30;;;3.97;;
3085;SDS011;52812;48.960;9.108;2023-02-01T08:43:52;6.27;;;3.80;;
3085;SDS011;52812;48.960;9.108;2023-02-01T08:46:19;6.73;;;3.60;;
3085;SDS011;52812;48.960;9.108;2023-02-01T08:48:45;6.50;;;3.57;;
3085;SDS011;52812;48.960;9.108;2023-02-01T08:51:12;6.57;;;4.20;;
3085;SDS011;52812;48.960;9.108;2023-02-01T08:53:40;8.50;;;4.80;;
3085;SDS011;52812;48.960;9.108;2023-02-01T08:56:06;6.90;;;4.10;;
3085;SDS011;52812;48.960;9.108;2023-02-01T08:58:33;6.83;;;4.10;;
3085;SDS011;52812;48.960;9.108;2023-02-01T09:01:05;7.60;;;4.43;;
3085;SDS011;52812;48.960;9.108;2023-02-01T09:03:32;4.73;;;3.57;;
3085;SDS011;52812;48.960;9.108;2023-02-01T09:06:05;5.10;;;3.83;;
3085;SDS011;52812;48.960;9.108;2023-02-01T09:08:33;6.00;;;3.63;;
3085;SDS011;52812;48.960;9.108;2023-02-01T09:11:04;6.70;;;4.00;;
3085;SDS011;52812;48.960;9.108;2023-02-01T09:13:32;5.27;;;3.77;;
3085;SDS011;52812;48.960;9.108;2023-02-01T09:15:59;5.20;;;3.33;;
3085;SDS011;52812;48.960;9.108;2023-02-01T09:18:25;14.33;;;4.27;;
3085;SDS011;52812;48.960;9.108;2023-02-01T09:20:50;7.10;;;3.67;;
3085;SDS011;52812;48.960;9.108;2023-02-01T09:23:16;6.50;;;3.10;;
3085;SDS011;52812;48.960;9.108;2023-02-01T09:25:42;3.77;;;3.10;;
3085;SDS011;52812;48.960;9.108;2023-02-01T09:28:08;10.10;;;3.53;;
3085;SDS011;52812;48.960;9.108;2023-02-01T09:30:35;6.63;;;3.70;;
3085;SDS011;52812;48.960;9.108;2023-02-01T09:33:01;10.50;;;3.50;;
3085;SDS011;52812;48.960;9.108;2023-02-01T09:35:27;6.20;;;3.57;;
3085;SDS011;52812;48.960;9.108;2023-02-01T09:37:53;6.23;;;3.70;;
3085;SDS011;52812;48.960;9.108;2023-02-01T09:40:19;6.60;;;2.93;;
3085;SDS011;52812;48.960;9.108;2023-02-01T09:45:19;7.73;;;3.27;;
3085;SDS011;52812;48.960;9.108;2023-02-01T09:48:08;6.90;;;3.00;;
3085;SDS011;52812;48.960;9.108;2023-02-01T09:50:38;8.80;;;4.43;;
3085;SDS011;52812;48.960;9.108;2023-02-01T09:53:18;3.90;;;3.00;;
3085;SDS011;52812;48.960;9.108;2023-02-01T09:55:51;7.83;;;3.63;;
3085;SDS011;52812;48.960;9.108;2023-02-01T09:58:30;7.17;;;3.40;;
3085;SDS011;52812;48.960;9.108;2023-02-01T10:00:59;7.17;;;3.40;;
3085;SDS011;52812;48.960;9.108;2023-02-01T10:03:29;9.73;;;3.10;;
3085;SDS011;52812;48.960;9.108;2023-02-01T10:19:44;5.80;;;2.50;;
3085;SDS011;52812;48.960;9.108;2023-02-01T10:22:44;7.60;;;2.67;;
3085;SDS011;52812;48.960;9.108;2023-02-01T10:25:22;7.47;;;3.00;;
3085;SDS011;52812;48.960;9.108;2023-02-01T10:27:51;8.47;;;3.70;;
3085;SDS011;52812;48.960;9.108;2023-02-01T10:30:19;8.20;;;3.10;;
3085;SDS011;52812;48.960;9.108;2023-02-01T10:32:52;6.73;;;2.90;;
3085;SDS011;52812;48.960;9.108;2023-02-01T10:35:27;6.87;;;3.10;;
3085;SDS011;52812;48.960;9.108;2023-02-01T10:37:58;7.17;;;3.53;;
3085;SDS011;52812;48.960;9.108;2023-02-01T10:40:27;4.83;;;2.80;;
3085;SDS011;52812;48.960;9.108;2023-02-01T10:42:54;4.13;;;2.57;;
3085;SDS011;52812;48.960;9.108;2023-02-01T10:45:25;5.50;;;3.00;;
3085;SDS011;52812;48.960;9.108;2023-02-01T10:47:53;6.53;;;2.77;;
3085;SDS011;52812;48.960;9.108;2023-02-01T10:55:55;7.13;;;3.50;;
3085;SDS011;52812;48.960;9.108;2023-02-01T11:00:56;6.40;;;3.40;;
3085;SDS011;52812;48.960;9.108;2023-02-01T11:06:02;6.30;;;2.87;;
3085;SDS011;52812;48.960;9.108;2023-02-01T11:08:57;7.37;;;3.03;;
3085;SDS011;52812;48.960;9.108;2023-02-01T11:14:22;8.10;;;3.33;;
3085;SDS011;52812;48.960;9.108;2023-02-01T11:17:00;5.10;;;3.30;;
3085;SDS011;52812;48.960;9.108;2023-02-01T11:19:35;6.43;;;3.07;;
3085;SDS011;52812;48.960;9.108;2023-02-01T11:22:01;3.90;;;2.67;;
3085;SDS011;52812;48.960;9.108;2023-02-01T11:24:32;7.20;;;3.50;;
3085;SDS011;52812;48.960;9.108;2023-02-01T11:27:04;6.93;;;3.00;;
3085;SDS011;52812;48.960;9.108;2023-02-01T11:29:42;7.43;;;3.00;;
3085;SDS011;52812;48.960;9.108;2023-02-01T11:32:10;8.80;;;3.30;;
3085;SDS011;52812;48.960;9.108;2023-02-01T11:34:38;6.03;;;2.97;;
3085;SDS011;52812;48.960;9.108;2023-02-01T11:37:24;6.60;;;3.20;;
3085;SDS011;52812;48.960;9.108;2023-02-01T11:39:58;5.07;;;2.83;;
3085;SDS011;52812;48.960;9.108;2023-02-01T11:42:25;7.47;;;2.73;;
3085;SDS011;52812;48.960;9.108;2023-02-01T11:45:09;4.30;;;2.90;;
3085;SDS011;52812;48.960;9.108;2023-02-01T11:47:43;7.40;;;2.70;;
3085;SDS011;52812;48.960;9.108;2023-02-01T11:50:18;4.97;;;2.77;;
3085;SDS011;52812;48.960;9.108;2023-02-01T12:11:57;4.33;;;2.10;;
3085;SDS011;52812;48.960;9.108;2023-02-01T12:17:41;3.10;;;2.27;;
3085;SDS011;52812;48.960;9.108;2023-02-01T12:20:41;4.43;;;2.73;;
3085;SDS011;52812;48.960;9.108;2023-02-01T12:37:23;4.67;;;2.90;;
3085;SDS011;52812;48.960;9.108;2023-02-01T12:42:52;5.50;;;2.53;;
3085;SDS011;52812;48.960;9.108;2023-02-01T12:45:48;4.13;;;2.87;;
3085;SDS011;52812;48.960;9.108;2023-02-01T12:51:16;5.57;;;2.80;;
3085;SDS011;52812;48.960;9.108;2023-02-01T12:58:52;9.03;;;2.67;;
3085;SDS011;52812;48.960;9.108;2023-02-01T13:04:26;3.57;;;2.50;;
3085;SDS011;52812;48.960;9.108;2023-02-01T13:07:00;6.00;;;2.80;;
3085;SDS011;52812;48.960;9.108;2023-02-01T13:12:21;6.23;;;2.80;;
3085;SDS011;52812;48.960;9.108;2023-02-01T13:15:16;7.50;;;3.40;;
3085;SDS011;52812;48.960;9.108;2023-02-01T13:18:13;7.60;;;3.30;;
3085;SDS011;52812;48.960;9.108;2023-02-01T13:23:37;6.97;;;3.40;;
3085;SDS011;52812;48.960;9.108;2023-02-01T13:26:05;5.70;;;2.80;;
3085;SDS011;52812;48.960;9.108;2023-02-01T13:43:01;6.23;;;3.00;;
3085;SDS011;52812;48.960;9.108;2023-02-01T13:45:34;4.00;;;2.50;;
3085;SDS011;52812;48.960;9.108;2023-02-01T13:48:03;5.70;;;3.30;;
3085;SDS011;52812;48.960;9.108;2023-02-01T13:50:37;5.03;;;2.90;;
3085;SDS011;52812;48.960;9.108;2023-02-01T13:55:38;5.60;;;3.00;;
3085;SDS011;52812;48.960;9.108;2023-02-01T14:01:24;4.07;;;2.40;;
3085;SDS011;52812;48.960;9.108;2023-02-01T14:03:46;4.00;;;2.70;;
3085;SDS011;52812;48.960;9.108;2023-02-01T14:06:35;4.73;;;2.63;;
3085;SDS011;52812;48.960;9.108;2023-02-01T14:19:36;5.77;;;2.50;;
3085;SDS011;52812;48.960;9.108;2023-02-01T14:24:54;6.43;;;3.53;;
3085;SDS011;52812;48.960;9.108;2023-02-01T14:27:22;5.67;;;3.20;;
3085;SDS011;52812;48.960;9.108;2023-02-01T14:29:53;3.80;;;2.87;;
3085;SDS011;52812;48.960;9.108;2023-02-01T14:32:36;5.50;;;3.00;;
3085;SDS011;52812;48.960;9.108;2023-02-01T14:35:12;4.60;;;2.80;;
3085;SDS011;52812;48.960;9.108;2023-02-01T14:37:46;6.40;;;3.27;;
3085;SDS011;52812;48.960;9.108;2023-02-01T14:40:16;6.33;;;3.10;;
3085;SDS011;52812;48.960;9.108;2023-02-01T14:42:48;6.97;;;3.00;;
3085;SDS011;52812;48.960;9.108;2023-02-01T14:47:47;4.27;;;2.77;;
3085;SDS011;52812;48.960;9.108;2023-02-01T15:01:21;4.17;;;2.60;;
3085;SDS011;52812;48.960;9.108;2023-02-01T15:09:16;5.03;;;3.10;;
3085;SDS011;52812;48.960;9.108;2023-02-01T15:14:39;5.10;;;2.23;;
3085;SDS011;52812;48.960;9.108;2023-02-01T15:17:29;8.03;;;2.70;;
3085;SDS011;52812;48.960;9.108;2023-02-01T15:20:00;4.07;;;2.90;;
3085;SDS011;52812;48.960;9.108;2023-02-01T15:22:28;7.37;;;2.80;;
3085;SDS011;52812;48.960;9.108;2023-02-01T15:24:56;5.43;;;3.00;;
3085;SDS011;52812;48.960;9.108;2023-02-01T15:27:23;8.53;;;3.03;;
3085;SDS011;52812;48.960;9.108;2023-02-01T15:29:50;6.20;;;2.80;;
3085;SDS011;52812;48.960;9.108;2023-02-01T15:34:56;5.70;;;2.50;;
3085;SDS011;52812;48.960;9.108;2023-02-01T15:37:22;6.53;;;2.80;;
3085;SDS011;52812;48.960;9.108;2023-02-01T15:42:46;3.97;;;2.87;;
3085;SDS011;52812;48.960;9.108;2023-02-01T15:45:19;6.53;;;2.87;;
3085;SDS011;52812;48.960;9.108;2023-02-01T15:47:48;5.93;;;3.03;;
3085;SDS011;52812;48.960;9.108;2023-02-01T15:50:18;7.57;;;3.20;;
3085;SDS011;52812;48.960;9.108;2023-02-01T15:52:46;5.20;;;2.90;;
3085;SDS011;52812;48.960;9.108;2023-02-01T15:55:46;10.37;;;3.07;;
3085;SDS011;52812;48.960;9.108;2023-02-01T15:58:07;5.33;;;2.63;;
3085;SDS011;52812;48.960;9.108;2023-02-01T16:00:42;7.53;;;3.40;;
3085;SDS011;52812;48.960;9.108;2023-02-01T16:13:58;7.63;;;2.90;;
3085;SDS011;52812;48.960;9.108;2023-02-01T16:16:25;4.43;;;2.90;;
3085;SDS011;52812;48.960;9.108;2023-02-01T16:18:52;8.23;;;2.90;;
3085;SDS011;52812;48.960;9.108;2023-02-01T16:21:18;8.57;;;3.40;;
3085;SDS011;52812;48.960;9.108;2023-02-01T16:23:48;7.33;;;3.50;;
3085;SDS011;52812;48.960;9.108;2023-02-01T16:26:18;6.70;;;2.70;;
3085;SDS011;52812;48.960;9.108;2023-02-01T16:28:45;4.73;;;2.53;;
3085;SDS011;52812;48.960;9.108;2023-02-01T16:31:12;6.53;;;2.50;;
3085;SDS011;52812;48.960;9.108;2023-02-01T16:33:51;6.37;;;2.97;;
3085;SDS011;52812;48.960;9.108;2023-02-01T16:36:17;5.17;;;3.30;;
3085;SDS011;52812;48.960;9.108;2023-02-01T16:38:44;5.73;;;2.90;;
3085;SDS011;52812;48.960;9.108;2023-02-01T16:41:16;8.33;;;3.40;;
3085;SDS011;52812;48.960;9.108;2023-02-01T16:43:43;7.47;;;3.30;;
3085;SDS011;52812;48.960;9.108;2023-02-01T16:46:13;6.10;;;2.77;;
3085;SDS011;52812;48.960;9.108;2023-02-01T16:48:42;6.93;;;2.90;;
3085;SDS011;52812;48.960;9.108;2023-02-01T16:51:12;6.70;;;3.07;;
3085;SDS011;52812;48.960;9.108;2023-02-01T16:53:41;6.23;;;4.17;;
3085;SDS011;52812;48.960;9.108;2023-02-01T16:56:27;10.10;;;3.67;;
3085;SDS011;52812;48.960;9.108;2023-02-01T16:58:55;7.37;;;3.03;;
3085;SDS011;52812;48.960;9.108;2023-02-01T17:01:21;7.73;;;3.40;;
3085;SDS011;52812;48.960;9.108;2023-02-01T17:03:47;9.33;;;3.97;;
3085;SDS011;52812;48.960;9.108;2023-02-01T17:06:14;6.33;;;2.87;;
3085;SDS011;52812;48.960;9.108;2023-02-01T17:08:43;6.60;;;3.00;;
3085;SDS011;52812;48.960;9.108;2023-02-01T17:11:12;6.20;;;2.80;;
3085;SDS011;52812;48.960;9.108;2023-02-01T17:13:38;4.50;;;2.60;;
3085;SDS011;52812;48.960;9.108;2023-02-01T17:16:24;6.37;;;3.27;;
3085;SDS011;52812;48.960;9.108;2023-02-01T17:18:58;8.27;;;2.70;;
3085;SDS011;52812;48.960;9.108;2023-02-01T17:21:27;5.40;;;3.07;;
3085;SDS011;52812;48.960;9.108;2023-02-01T17:23:55;7.57;;;4.60;;
3085;SDS011;52812;48.960;9.108;2023-02-01T17:26:23;5.97;;;3.30;;
3085;SDS011;52812;48.960;9.108;2023-02-01T17:28:49;6.83;;;3.20;;
3085;SDS011;52812;48.960;9.108;2023-02-01T17:31:15;9.40;;;3.53;;
3085;SDS011;52812;48.960;9.108;2023-02-01T17:33:42;3.63;;;2.37;;
3085;SDS011;52812;48.960;9.108;2023-02-01T17:36:10;4.93;;;2.83;;
3085;SDS011;52812;48.960;9.108;2023-02-01T17:38:38;11.10;;;3.30;;
3085;SDS011;52812;48.960;9.108;2023-02-01T17:41:05;5.33;;;3.00;;
3085;SDS011;52812;48.960;9.108;2023-02-01T17:43:30;3.33;;;2.50;;
3085;SDS011;52812;48.960;9.108;2023-02-01T17:45:57;8.53;;;2.90;;
3085;SDS011;52812;48.960;9.108;2023-02-01T17:48:35;5.80;;;2.57;;
3085;SDS011;52812;48.960;9.108;2023-02-01T17:51:00;6.23;;;2.77;;
3085;SDS011;52812;48.960;9.108;2023-02-01T17:53:28;10.17;;;2.90;;
3085;SDS011;52812;48.960;9.108;2023-02-01T17:55:56;5.30;;;3.30;;
3085;SDS011;52812;48.960;9.108;2023-02-01T17:58:23;4.23;;;2.77;;
3085;SDS011;52812;48.960;9.108;2023-02-01T18:00:55;5.83;;;2.80;;
3085;SDS011;52812;48.960;9.108;2023-02-01T18:03:24;5.43;;;3.00;;
3085;SDS011;52812;48.960;9.108;2023-02-01T18:05:52;7.20;;;2.77;;
3085;SDS011;52812;48.960;9.108;2023-02-01T18:08:29;7.10;;;3.33;;
3085;SDS011;52812;48.960;9.108;2023-02-01T18:10:58;6.37;;;3.07;;
3085;SDS011;52812;48.960;9.108;2023-02-01T18:13:28;3.97;;;2.70;;
3085;SDS011;52812;48.960;9.108;2023-02-01T18:15:56;4.70;;;2.80;;
3085;SDS011;52812;48.960;9.108;2023-02-01T18:18:26;4.60;;;2.90;;
3085;SDS011;52812;48.960;9.108;2023-02-01T18:20:54;5.53;;;2.50;;
3085;SDS011;52812;48.960;9.108;2023-02-01T18:23:21;7.93;;;2.90;;
3085;SDS011;52812;48.960;9.108;2023-02-01T18:25:48;5.93;;;2.90;;
3085;SDS011;52812;48.960;9.108;2023-02-01T18:28:15;5.13;;;2.97;;